sensor_id;sensor_type;location;lat;lon;timestamp;P1;durP1;ratioP1;P2;durP2;ratioP2
75356;SDS011;63946;51.986;5.930;2023-12-22T00:01:08;12.23;;;1.70;;
75356;SDS011;63946;51.986;5.930;2023-12-22T00:03:45;7.30;;;1.63;;
75356;SDS011;63946;51.986;5.930;2023-12-22T00:06:17;5.05;;;1.40;;
75356;SDS011;63946;51.986;5.930;2023-12-22T00:08:52;13.07;;;2.20;;
75356;SDS011;63946;51.986;5.930;2023-12-22T00:11:21;12.32;;;1.58;;
75356;SDS011;63946;51.986;5.930;2023-12-22T00:13:50;11.35;;;2.28;;
75356;SDS011;63946;51.986;5.930;2023-12-22T00:16:18;9.93;;;2.78;;
75356;SDS011;63946;51.986;5.930;2023-12-22T00:18:47;8.25;;;1.60;;
75356;SDS011;63946;51.986;5.930;2023-12-22T00:21:27;6.55;;;1.77;;
75356;SDS011;63946;51.986;5.930;2023-12-22T00:23:57;7.53;;;1.65;;
75356;SDS011;63946;51.986;5.930;2023-12-22T00:26:26;8.65;;;1.73;;
75356;SDS011;63946;51.986;5.930;2023-12-22T00:28:58;6.40;;;2.20;;
75356;SDS011;63946;51.986;5.930;2023-12-22T00:31:33;10.40;;;1.63;;
75356;SDS011;63946;51.986;5.930;2023-12-22T00:34:22;4.18;;;1.70;;
75356;SDS011;63946;51.986;5.930;2023-12-22T00:36:51;7.47;;;1.73;;
75356;SDS011;63946;51.986;5.930;2023-12-22T00:39:22;3.95;;;1.50;;
75356;SDS011;63946;51.986;5.930;2023-12-22T00:41:59;7.75;;;1.35;;
75356;SDS011;63946;51.986;5.930;2023-12-22T00:44:30;5.43;;;1.08;;
75356;SDS011;63946;51.986;5.930;2023-12-22T00:47:04;3.63;;;0.88;;
75356;SDS011;63946;51.986;5.930;2023-12-22T00:49:33;3.60;;;0.90;;
75356;SDS011;63946;51.986;5.930;2023-12-22T00:52:02;5.57;;;1.38;;
75356;SDS011;63946;51.986;5.930;2023-12-22T00:54:34;5.40;;;1.48;;
75356;SDS011;63946;51.986;5.930;2023-12-22T00:57:03;4.78;;;0.90;;
75356;SDS011;63946;51.986;5.930;2023-12-22T00:59:35;5.07;;;1.10;;
75356;SDS011;63946;51.986;5.930;2023-12-22T01:02:08;4.03;;;1.17;;
75356;SDS011;63946;51.986;5.930;2023-12-22T01:04:37;4.38;;;1.20;;
75356;SDS011;63946;51.986;5.930;2023-12-22T01:07:08;3.88;;;1.00;;
75356;SDS011;63946;51.986;5.930;2023-12-22T01:09:42;4.25;;;1.10;;
75356;SDS011;63946;51.986;5.930;2023-12-22T01:12:11;5.32;;;1.02;;
75356;SDS011;63946;51.986;5.930;2023-12-22T01:14:40;6.20;;;1.40;;
75356;SDS011;63946;51.986;5.930;2023-12-22T01:17:11;3.88;;;1.23;;
75356;SDS011;63946;51.986;5.930;2023-12-22T01:19:40;7.45;;;1.17;;
75356;SDS011;63946;51.986;5.930;2023-12-22T01:22:11;5.97;;;1.48;;
75356;SDS011;63946;51.986;5.930;2023-12-22T01:24:40;4.13;;;0.90;;
75356;SDS011;63946;51.986;5.930;2023-12-22T01:27:21;6.47;;;1.48;;
75356;SDS011;63946;51.986;5.930;2023-12-22T01:29:50;5.25;;;0.95;;
75356;SDS011;63946;51.986;5.930;2023-12-22T01:32:19;6.70;;;1.00;;
75356;SDS011;63946;51.986;5.930;2023-12-22T01:34:48;3.17;;;1.10;;
75356;SDS011;63946;51.986;5.930;2023-12-22T01:37:44;5.13;;;1.55;;
75356;SDS011;63946;51.986;5.930;2023-12-22T01:40:24;3.50;;;0.88;;
75356;SDS011;63946;51.986;5.930;2023-12-22T01:42:53;6.53;;;1.10;;
75356;SDS011;63946;51.986;5.930;2023-12-22T01:45:22;6.43;;;0.98;;
75356;SDS011;63946;51.986;5.930;2023-12-22T01:47:51;6.30;;;1.17;;
75356;SDS011;63946;51.986;5.930;2023-12-22T01:50:23;4.70;;;1.83;;
75356;SDS011;63946;51.986;5.930;2023-12-22T01:53:03;6.78;;;1.33;;
75356;SDS011;63946;51.986;5.930;2023-12-22T01:55:34;5.57;;;1.30;;
75356;SDS011;63946;51.986;5.930;2023-12-22T01:58:04;7.25;;;1.40;;
75356;SDS011;63946;51.986;5.930;2023-12-22T02:00:33;4.05;;;1.17;;
75356;SDS011;63946;51.986;5.930;2023-12-22T02:03:05;6.25;;;1.10;;
75356;SDS011;63946;51.986;5.930;2023-12-22T02:05:34;6.25;;;1.20;;
75356;SDS011;63946;51.986;5.930;2023-12-22T02:08:04;3.67;;;0.88;;
75356;SDS011;63946;51.986;5.930;2023-12-22T02:10:33;5.85;;;1.10;;
75356;SDS011;63946;51.986;5.930;2023-12-22T02:13:04;6.30;;;1.00;;
75356;SDS011;63946;51.986;5.930;2023-12-22T02:15:37;4.47;;;1.00;;
75356;SDS011;63946;51.986;5.930;2023-12-22T02:18:10;7.20;;;1.45;;
75356;SDS011;63946;51.986;5.930;2023-12-22T02:20:53;4.88;;;1.08;;
75356;SDS011;63946;51.986;5.930;2023-12-22T02:23:25;9.48;;;1.02;;
75356;SDS011;63946;51.986;5.930;2023-12-22T02:26:27;9.85;;;1.45;;
75356;SDS011;63946;51.986;5.930;2023-12-22T02:28:57;8.25;;;1.42;;
75356;SDS011;63946;51.986;5.930;2023-12-22T02:31:40;4.30;;;1.50;;
75356;SDS011;63946;51.986;5.930;2023-12-22T02:34:26;9.30;;;1.40;;
75356;SDS011;63946;51.986;5.930;2023-12-22T02:36:58;9.05;;;1.52;;
75356;SDS011;63946;51.986;5.930;2023-12-22T02:39:27;5.15;;;1.30;;
75356;SDS011;63946;51.986;5.930;2023-12-22T02:41:56;8.35;;;1.30;;
75356;SDS011;63946;51.986;5.930;2023-12-22T02:44:28;7.50;;;1.40;;
75356;SDS011;63946;51.986;5.930;2023-12-22T02:47:00;9.70;;;1.55;;
75356;SDS011;63946;51.986;5.930;2023-12-22T02:49:29;7.90;;;1.98;;
75356;SDS011;63946;51.986;5.930;2023-12-22T02:52:03;7.88;;;1.73;;
75356;SDS011;63946;51.986;5.930;2023-12-22T02:54:37;8.70;;;2.00;;
75356;SDS011;63946;51.986;5.930;2023-12-22T02:57:08;5.75;;;1.38;;
75356;SDS011;63946;51.986;5.930;2023-12-22T02:59:39;15.70;;;2.45;;
75356;SDS011;63946;51.986;5.930;2023-12-22T03:02:08;3.70;;;1.50;;
75356;SDS011;63946;51.986;5.930;2023-12-22T03:04:40;8.68;;;1.60;;
75356;SDS011;63946;51.986;5.930;2023-12-22T03:07:11;7.78;;;1.85;;
75356;SDS011;63946;51.986;5.930;2023-12-22T03:09:43;9.85;;;1.73;;
75356;SDS011;63946;51.986;5.930;2023-12-22T03:12:12;10.32;;;2.22;;
75356;SDS011;63946;51.986;5.930;2023-12-22T03:14:42;11.38;;;1.70;;
75356;SDS011;63946;51.986;5.930;2023-12-22T03:17:11;6.43;;;1.65;;
75356;SDS011;63946;51.986;5.930;2023-12-22T03:19:40;10.05;;;2.22;;
75356;SDS011;63946;51.986;5.930;2023-12-22T03:22:12;16.55;;;2.72;;
75356;SDS011;63946;51.986;5.930;2023-12-22T03:24:43;14.55;;;1.90;;
75356;SDS011;63946;51.986;5.930;2023-12-22T03:27:15;7.63;;;1.10;;
75356;SDS011;63946;51.986;5.930;2023-12-22T03:29:48;4.05;;;0.60;;
75356;SDS011;63946;51.986;5.930;2023-12-22T03:32:18;5.35;;;1.48;;
75356;SDS011;63946;51.986;5.930;2023-12-22T03:34:49;4.32;;;0.90;;
75356;SDS011;63946;51.986;5.930;2023-12-22T03:37:18;3.55;;;1.05;;
75356;SDS011;63946;51.986;5.930;2023-12-22T03:39:47;4.50;;;0.63;;
75356;SDS011;63946;51.986;5.930;2023-12-22T03:42:17;3.60;;;0.75;;
75356;SDS011;63946;51.986;5.930;2023-12-22T03:44:47;4.05;;;0.98;;
75356;SDS011;63946;51.986;5.930;2023-12-22T03:47:19;3.03;;;1.17;;
75356;SDS011;63946;51.986;5.930;2023-12-22T03:49:48;7.50;;;1.70;;
75356;SDS011;63946;51.986;5.930;2023-12-22T03:52:17;2.92;;;0.77;;
75356;SDS011;63946;51.986;5.930;2023-12-22T03:54:49;4.20;;;0.98;;
75356;SDS011;63946;51.986;5.930;2023-12-22T03:57:21;7.32;;;1.13;;
75356;SDS011;63946;51.986;5.930;2023-12-22T03:59:59;6.05;;;1.00;;
75356;SDS011;63946;51.986;5.930;2023-12-22T04:02:29;6.50;;;0.82;;
75356;SDS011;63946;51.986;5.930;2023-12-22T04:05:01;3.08;;;0.70;;
75356;SDS011;63946;51.986;5.930;2023-12-22T04:07:35;3.35;;;1.00;;
75356;SDS011;63946;51.986;5.930;2023-12-22T04:10:06;4.95;;;1.20;;
75356;SDS011;63946;51.986;5.930;2023-12-22T04:12:36;5.30;;;1.05;;
75356;SDS011;63946;51.986;5.930;2023-12-22T04:15:05;4.50;;;0.90;;
75356;SDS011;63946;51.986;5.930;2023-12-22T04:17:35;5.68;;;1.45;;
75356;SDS011;63946;51.986;5.930;2023-12-22T04:20:06;6.60;;;1.13;;
75356;SDS011;63946;51.986;5.930;2023-12-22T04:22:39;6.32;;;1.35;;
75356;SDS011;63946;51.986;5.930;2023-12-22T04:25:08;6.22;;;1.38;;
75356;SDS011;63946;51.986;5.930;2023-12-22T04:27:37;5.45;;;0.90;;
75356;SDS011;63946;51.986;5.930;2023-12-22T04:32:37;6.53;;;1.35;;
75356;SDS011;63946;51.986;5.930;2023-12-22T04:35:08;3.35;;;1.08;;
75356;SDS011;63946;51.986;5.930;2023-12-22T04:37:37;10.45;;;1.65;;
75356;SDS011;63946;51.986;5.930;2023-12-22T04:40:08;7.35;;;2.28;;
75356;SDS011;63946;51.986;5.930;2023-12-22T04:42:40;6.07;;;2.08;;
75356;SDS011;63946;51.986;5.930;2023-12-22T04:45:12;5.65;;;1.45;;
75356;SDS011;63946;51.986;5.930;2023-12-22T04:47:43;11.75;;;1.52;;
75356;SDS011;63946;51.986;5.930;2023-12-22T04:50:25;9.02;;;2.17;;
75356;SDS011;63946;51.986;5.930;2023-12-22T04:52:57;7.10;;;1.65;;
75356;SDS011;63946;51.986;5.930;2023-12-22T04:55:29;8.63;;;1.75;;
75356;SDS011;63946;51.986;5.930;2023-12-22T04:57:58;6.72;;;1.85;;
75356;SDS011;63946;51.986;5.930;2023-12-22T05:00:28;6.32;;;1.55;;
75356;SDS011;63946;51.986;5.930;2023-12-22T05:02:57;9.50;;;1.90;;
75356;SDS011;63946;51.986;5.930;2023-12-22T05:05:29;7.20;;;2.13;;
75356;SDS011;63946;51.986;5.930;2023-12-22T05:07:58;7.72;;;1.45;;
75356;SDS011;63946;51.986;5.930;2023-12-22T05:10:33;9.18;;;1.65;;
75356;SDS011;63946;51.986;5.930;2023-12-22T05:13:05;8.07;;;1.45;;
75356;SDS011;63946;51.986;5.930;2023-12-22T05:15:34;7.75;;;1.48;;
75356;SDS011;63946;51.986;5.930;2023-12-22T05:18:06;10.30;;;1.77;;
75356;SDS011;63946;51.986;5.930;2023-12-22T05:20:35;7.80;;;1.42;;
75356;SDS011;63946;51.986;5.930;2023-12-22T05:23:04;11.90;;;1.75;;
75356;SDS011;63946;51.986;5.930;2023-12-22T05:25:36;9.02;;;1.98;;
75356;SDS011;63946;51.986;5.930;2023-12-22T05:28:06;10.55;;;1.92;;
75356;SDS011;63946;51.986;5.930;2023-12-22T05:30:39;8.38;;;1.40;;
75356;SDS011;63946;51.986;5.930;2023-12-22T05:33:20;9.82;;;1.90;;
75356;SDS011;63946;51.986;5.930;2023-12-22T05:35:49;8.90;;;1.73;;
75356;SDS011;63946;51.986;5.930;2023-12-22T05:38:18;8.88;;;1.52;;
75356;SDS011;63946;51.986;5.930;2023-12-22T05:40:47;9.27;;;1.38;;
75356;SDS011;63946;51.986;5.930;2023-12-22T05:43:16;11.35;;;1.65;;
75356;SDS011;63946;51.986;5.930;2023-12-22T05:45:48;7.63;;;1.75;;
75356;SDS011;63946;51.986;5.930;2023-12-22T05:48:16;9.93;;;2.05;;
75356;SDS011;63946;51.986;5.930;2023-12-22T05:50:47;12.13;;;2.42;;
75356;SDS011;63946;51.986;5.930;2023-12-22T05:53:29;14.02;;;1.85;;
75356;SDS011;63946;51.986;5.930;2023-12-22T05:56:01;9.60;;;1.45;;
75356;SDS011;63946;51.986;5.930;2023-12-22T05:58:30;9.23;;;1.80;;
75356;SDS011;63946;51.986;5.930;2023-12-22T06:01:02;5.05;;;1.50;;
75356;SDS011;63946;51.986;5.930;2023-12-22T06:03:31;9.63;;;1.60;;
75356;SDS011;63946;51.986;5.930;2023-12-22T06:06:00;9.43;;;1.50;;
75356;SDS011;63946;51.986;5.930;2023-12-22T06:08:29;9.57;;;2.13;;
75356;SDS011;63946;51.986;5.930;2023-12-22T06:11:03;9.48;;;1.92;;
75356;SDS011;63946;51.986;5.930;2023-12-22T06:13:33;8.20;;;2.33;;
75356;SDS011;63946;51.986;5.930;2023-12-22T06:16:03;12.45;;;2.63;;
75356;SDS011;63946;51.986;5.930;2023-12-22T06:18:32;12.90;;;2.05;;
75356;SDS011;63946;51.986;5.930;2023-12-22T06:21:01;10.30;;;1.80;;
75356;SDS011;63946;51.986;5.930;2023-12-22T06:26:02;10.73;;;3.95;;
75356;SDS011;63946;51.986;5.930;2023-12-22T06:28:40;12.63;;;1.95;;
75356;SDS011;63946;51.986;5.930;2023-12-22T06:31:06;14.38;;;2.17;;
75356;SDS011;63946;51.986;5.930;2023-12-22T06:33:36;13.60;;;1.70;;
75356;SDS011;63946;51.986;5.930;2023-12-22T06:36:19;11.15;;;1.95;;
75356;SDS011;63946;51.986;5.930;2023-12-22T06:39:00;10.45;;;1.90;;
75356;SDS011;63946;51.986;5.930;2023-12-22T06:41:37;8.48;;;2.17;;
75356;SDS011;63946;51.986;5.930;2023-12-22T06:44:08;10.70;;;2.25;;
75356;SDS011;63946;51.986;5.930;2023-12-22T06:46:40;11.93;;;2.20;;
75356;SDS011;63946;51.986;5.930;2023-12-22T06:49:09;7.53;;;1.65;;
75356;SDS011;63946;51.986;5.930;2023-12-22T06:51:40;10.90;;;1.83;;
75356;SDS011;63946;51.986;5.930;2023-12-22T06:54:09;7.45;;;2.13;;
75356;SDS011;63946;51.986;5.930;2023-12-22T06:56:41;8.32;;;2.00;;
75356;SDS011;63946;51.986;5.930;2023-12-22T06:59:11;5.00;;;1.50;;
75356;SDS011;63946;51.986;5.930;2023-12-22T07:01:51;15.50;;;2.70;;
75356;SDS011;63946;51.986;5.930;2023-12-22T07:07:32;12.32;;;2.00;;
75356;SDS011;63946;51.986;5.930;2023-12-22T07:10:01;15.02;;;2.75;;
75356;SDS011;63946;51.986;5.930;2023-12-22T07:12:30;7.65;;;2.35;;
75356;SDS011;63946;51.986;5.930;2023-12-22T07:15:02;9.00;;;2.13;;
75356;SDS011;63946;51.986;5.930;2023-12-22T07:17:32;10.43;;;2.10;;
75356;SDS011;63946;51.986;5.930;2023-12-22T07:20:11;14.55;;;2.22;;
75356;SDS011;63946;51.986;5.930;2023-12-22T07:22:46;10.57;;;1.92;;
75356;SDS011;63946;51.986;5.930;2023-12-22T07:25:16;13.23;;;2.78;;
75356;SDS011;63946;51.986;5.930;2023-12-22T07:27:51;11.75;;;2.00;;
75356;SDS011;63946;51.986;5.930;2023-12-22T07:30:28;17.60;;;2.80;;
75356;SDS011;63946;51.986;5.930;2023-12-22T07:33:00;11.13;;;2.45;;
75356;SDS011;63946;51.986;5.930;2023-12-22T07:35:33;12.40;;;2.53;;
75356;SDS011;63946;51.986;5.930;2023-12-22T07:38:03;11.43;;;2.92;;
75356;SDS011;63946;51.986;5.930;2023-12-22T07:40:32;13.30;;;2.22;;
75356;SDS011;63946;51.986;5.930;2023-12-22T07:43:11;11.38;;;2.17;;
75356;SDS011;63946;51.986;5.930;2023-12-22T07:45:55;12.00;;;2.22;;
75356;SDS011;63946;51.986;5.930;2023-12-22T07:48:50;12.20;;;2.90;;
75356;SDS011;63946;51.986;5.930;2023-12-22T07:51:20;20.00;;;3.35;;
75356;SDS011;63946;51.986;5.930;2023-12-22T07:53:49;11.13;;;2.97;;
75356;SDS011;63946;51.986;5.930;2023-12-22T07:56:24;20.05;;;3.17;;
75356;SDS011;63946;51.986;5.930;2023-12-22T07:58:58;13.20;;;2.70;;
75356;SDS011;63946;51.986;5.930;2023-12-22T08:01:34;14.80;;;2.90;;
75356;SDS011;63946;51.986;5.930;2023-12-22T08:04:06;17.50;;;3.60;;
75356;SDS011;63946;51.986;5.930;2023-12-22T08:09:30;14.68;;;3.55;;
75356;SDS011;63946;51.986;5.930;2023-12-22T08:12:14;15.25;;;3.00;;
75356;SDS011;63946;51.986;5.930;2023-12-22T08:14:43;16.30;;;2.97;;
75356;SDS011;63946;51.986;5.930;2023-12-22T08:17:13;17.35;;;3.47;;
75356;SDS011;63946;51.986;5.930;2023-12-22T08:19:52;14.35;;;3.13;;
75356;SDS011;63946;51.986;5.930;2023-12-22T08:22:22;14.57;;;2.88;;
75356;SDS011;63946;51.986;5.930;2023-12-22T08:24:51;15.60;;;3.03;;
75356;SDS011;63946;51.986;5.930;2023-12-22T08:27:23;8.27;;;1.88;;
75356;SDS011;63946;51.986;5.930;2023-12-22T08:29:58;9.52;;;1.98;;
75356;SDS011;63946;51.986;5.930;2023-12-22T08:32:27;11.98;;;1.63;;
75356;SDS011;63946;51.986;5.930;2023-12-22T08:34:56;14.50;;;2.15;;
75356;SDS011;63946;51.986;5.930;2023-12-22T08:37:26;10.15;;;1.85;;
75356;SDS011;63946;51.986;5.930;2023-12-22T08:40:01;8.63;;;1.75;;
75356;SDS011;63946;51.986;5.930;2023-12-22T08:42:31;7.28;;;1.75;;
75356;SDS011;63946;51.986;5.930;2023-12-22T08:45:00;10.00;;;2.30;;
75356;SDS011;63946;51.986;5.930;2023-12-22T08:47:32;9.65;;;2.33;;
75356;SDS011;63946;51.986;5.930;2023-12-22T08:50:02;10.98;;;2.15;;
75356;SDS011;63946;51.986;5.930;2023-12-22T08:52:35;9.60;;;2.17;;
75356;SDS011;63946;51.986;5.930;2023-12-22T08:55:05;13.70;;;2.85;;
75356;SDS011;63946;51.986;5.930;2023-12-22T08:57:34;8.45;;;2.00;;
75356;SDS011;63946;51.986;5.930;2023-12-22T09:00:03;12.13;;;3.35;;
75356;SDS011;63946;51.986;5.930;2023-12-22T09:02:33;19.05;;;3.20;;
75356;SDS011;63946;51.986;5.930;2023-12-22T09:05:04;10.15;;;2.88;;
75356;SDS011;63946;51.986;5.930;2023-12-22T09:07:36;14.43;;;2.60;;
75356;SDS011;63946;51.986;5.930;2023-12-22T09:10:05;14.18;;;2.92;;
75356;SDS011;63946;51.986;5.930;2023-12-22T09:12:35;12.25;;;2.67;;
75356;SDS011;63946;51.986;5.930;2023-12-22T09:15:07;10.88;;;2.90;;
75356;SDS011;63946;51.986;5.930;2023-12-22T09:17:39;9.45;;;2.03;;
75356;SDS011;63946;51.986;5.930;2023-12-22T09:20:09;11.40;;;1.95;;
75356;SDS011;63946;51.986;5.930;2023-12-22T09:22:41;13.13;;;2.60;;
75356;SDS011;63946;51.986;5.930;2023-12-22T09:25:31;10.25;;;2.45;;
75356;SDS011;63946;51.986;5.930;2023-12-22T09:28:00;11.43;;;2.22;;
75356;SDS011;63946;51.986;5.930;2023-12-22T09:30:30;9.25;;;2.38;;
75356;SDS011;63946;51.986;5.930;2023-12-22T09:33:01;8.40;;;1.73;;
75356;SDS011;63946;51.986;5.930;2023-12-22T09:35:31;6.20;;;1.75;;
75356;SDS011;63946;51.986;5.930;2023-12-22T09:38:01;8.35;;;2.10;;
75356;SDS011;63946;51.986;5.930;2023-12-22T09:40:41;9.07;;;1.73;;
75356;SDS011;63946;51.986;5.930;2023-12-22T09:43:11;8.63;;;1.60;;
75356;SDS011;63946;51.986;5.930;2023-12-22T09:45:45;8.55;;;1.80;;
75356;SDS011;63946;51.986;5.930;2023-12-22T09:48:15;9.05;;;1.85;;
75356;SDS011;63946;51.986;5.930;2023-12-22T09:50:54;8.40;;;1.92;;
75356;SDS011;63946;51.986;5.930;2023-12-22T09:53:25;7.25;;;1.55;;
75356;SDS011;63946;51.986;5.930;2023-12-22T09:55:59;6.68;;;1.60;;
75356;SDS011;63946;51.986;5.930;2023-12-22T09:58:29;4.70;;;1.30;;
75356;SDS011;63946;51.986;5.930;2023-12-22T10:01:05;5.20;;;1.27;;
75356;SDS011;63946;51.986;5.930;2023-12-22T10:03:34;4.20;;;0.90;;
75356;SDS011;63946;51.986;5.930;2023-12-22T10:06:07;3.83;;;0.85;;
75356;SDS011;63946;51.986;5.930;2023-12-22T10:08:38;4.30;;;0.90;;
75356;SDS011;63946;51.986;5.930;2023-12-22T10:11:12;4.30;;;1.10;;
75356;SDS011;63946;51.986;5.930;2023-12-22T10:13:42;3.10;;;0.70;;
75356;SDS011;63946;51.986;5.930;2023-12-22T10:16:17;3.63;;;1.20;;
75356;SDS011;63946;51.986;5.930;2023-12-22T10:18:46;3.70;;;1.17;;
75356;SDS011;63946;51.986;5.930;2023-12-22T10:21:15;2.97;;;0.75;;
75356;SDS011;63946;51.986;5.930;2023-12-22T10:23:49;3.80;;;0.80;;
75356;SDS011;63946;51.986;5.930;2023-12-22T10:26:21;4.47;;;0.98;;
75356;SDS011;63946;51.986;5.930;2023-12-22T10:28:53;3.50;;;0.60;;
75356;SDS011;63946;51.986;5.930;2023-12-22T10:31:39;1.98;;;1.02;;
75356;SDS011;63946;51.986;5.930;2023-12-22T10:34:11;2.90;;;1.00;;
75356;SDS011;63946;51.986;5.930;2023-12-22T10:36:43;3.63;;;1.10;;
75356;SDS011;63946;51.986;5.930;2023-12-22T10:39:12;2.90;;;0.90;;
75356;SDS011;63946;51.986;5.930;2023-12-22T10:41:44;5.45;;;1.85;;
75356;SDS011;63946;51.986;5.930;2023-12-22T10:44:15;8.90;;;1.55;;
75356;SDS011;63946;51.986;5.930;2023-12-22T10:46:48;5.78;;;1.42;;
75356;SDS011;63946;51.986;5.930;2023-12-22T10:49:20;4.97;;;1.27;;
75356;SDS011;63946;51.986;5.930;2023-12-22T10:51:53;4.95;;;1.20;;
75356;SDS011;63946;51.986;5.930;2023-12-22T10:54:29;3.85;;;1.40;;
75356;SDS011;63946;51.986;5.930;2023-12-22T10:57:04;10.55;;;1.23;;
75356;SDS011;63946;51.986;5.930;2023-12-22T10:59:33;4.15;;;1.30;;
75356;SDS011;63946;51.986;5.930;2023-12-22T11:02:13;8.68;;;1.55;;
75356;SDS011;63946;51.986;5.930;2023-12-22T11:04:56;3.80;;;1.75;;
75356;SDS011;63946;51.986;5.930;2023-12-22T11:07:28;5.63;;;1.90;;
75356;SDS011;63946;51.986;5.930;2023-12-22T11:10:17;4.53;;;1.10;;
75356;SDS011;63946;51.986;5.930;2023-12-22T11:12:49;6.93;;;1.50;;
75356;SDS011;63946;51.986;5.930;2023-12-22T11:15:22;5.13;;;1.20;;
75356;SDS011;63946;51.986;5.930;2023-12-22T11:17:53;2.72;;;1.27;;
75356;SDS011;63946;51.986;5.930;2023-12-22T11:20:25;5.03;;;1.13;;
75356;SDS011;63946;51.986;5.930;2023-12-22T11:22:59;4.43;;;1.45;;
75356;SDS011;63946;51.986;5.930;2023-12-22T11:25:29;4.55;;;1.77;;
75356;SDS011;63946;51.986;5.930;2023-12-22T11:28:00;6.03;;;1.63;;
75356;SDS011;63946;51.986;5.930;2023-12-22T11:30:34;5.30;;;1.30;;
75356;SDS011;63946;51.986;5.930;2023-12-22T11:33:05;4.93;;;1.30;;
75356;SDS011;63946;51.986;5.930;2023-12-22T11:35:38;4.68;;;1.55;;
75356;SDS011;63946;51.986;5.930;2023-12-22T11:38:07;5.85;;;1.30;;
75356;SDS011;63946;51.986;5.930;2023-12-22T11:41:05;5.43;;;1.30;;
75356;SDS011;63946;51.986;5.930;2023-12-22T11:43:43;5.38;;;1.80;;
75356;SDS011;63946;51.986;5.930;2023-12-22T11:46:15;6.68;;;1.33;;
75356;SDS011;63946;51.986;5.930;2023-12-22T11:48:48;5.05;;;1.13;;
75356;SDS011;63946;51.986;5.930;2023-12-22T11:51:21;8.52;;;1.73;;
75356;SDS011;63946;51.986;5.930;2023-12-22T11:53:51;6.45;;;1.35;;
75356;SDS011;63946;51.986;5.930;2023-12-22T11:56:20;5.95;;;1.63;;
75356;SDS011;63946;51.986;5.930;2023-12-22T11:58:51;4.75;;;1.17;;
75356;SDS011;63946;51.986;5.930;2023-12-22T12:01:25;4.00;;;1.15;;
75356;SDS011;63946;51.986;5.930;2023-12-22T12:03:57;5.32;;;1.35;;
75356;SDS011;63946;51.986;5.930;2023-12-22T12:08:55;3.70;;;1.60;;
75356;SDS011;63946;51.986;5.930;2023-12-22T12:14:31;7.47;;;1.20;;
75356;SDS011;63946;51.986;5.930;2023-12-22T12:17:03;4.40;;;1.10;;
75356;SDS011;63946;51.986;5.930;2023-12-22T12:19:37;5.00;;;1.63;;
75356;SDS011;63946;51.986;5.930;2023-12-22T12:22:07;4.60;;;1.67;;
75356;SDS011;63946;51.986;5.930;2023-12-22T12:24:41;4.03;;;1.25;;
75356;SDS011;63946;51.986;5.930;2023-12-22T12:27:11;7.10;;;1.27;;
75356;SDS011;63946;51.986;5.930;2023-12-22T12:29:43;6.03;;;1.30;;
75356;SDS011;63946;51.986;5.930;2023-12-22T12:32:13;4.60;;;1.17;;
75356;SDS011;63946;51.986;5.930;2023-12-22T12:35:00;7.50;;;1.35;;
75356;SDS011;63946;51.986;5.930;2023-12-22T12:37:32;6.72;;;1.33;;
75356;SDS011;63946;51.986;5.930;2023-12-22T12:40:03;7.68;;;1.83;;
75356;SDS011;63946;51.986;5.930;2023-12-22T12:42:38;6.20;;;1.50;;
75356;SDS011;63946;51.986;5.930;2023-12-22T12:45:07;5.80;;;1.50;;
75356;SDS011;63946;51.986;5.930;2023-12-22T12:47:38;5.55;;;1.65;;
75356;SDS011;63946;51.986;5.930;2023-12-22T12:50:07;6.32;;;1.38;;
75356;SDS011;63946;51.986;5.930;2023-12-22T12:52:37;6.03;;;1.27;;
75356;SDS011;63946;51.986;5.930;2023-12-22T12:55:08;8.10;;;1.45;;
75356;SDS011;63946;51.986;5.930;2023-12-22T12:57:42;3.63;;;1.00;;
75356;SDS011;63946;51.986;5.930;2023-12-22T13:00:11;6.43;;;1.40;;
75356;SDS011;63946;51.986;5.930;2023-12-22T13:02:40;6.43;;;1.40;;
75356;SDS011;63946;51.986;5.930;2023-12-22T13:05:19;7.10;;;1.05;;
75356;SDS011;63946;51.986;5.930;2023-12-22T13:07:49;6.25;;;1.40;;
75356;SDS011;63946;51.986;5.930;2023-12-22T13:10:24;6.20;;;1.48;;
75356;SDS011;63946;51.986;5.930;2023-12-22T13:12:57;8.10;;;1.35;;
75356;SDS011;63946;51.986;5.930;2023-12-22T13:15:26;4.65;;;0.90;;
75356;SDS011;63946;51.986;5.930;2023-12-22T13:17:57;3.42;;;0.95;;
75356;SDS011;63946;51.986;5.930;2023-12-22T13:20:37;4.05;;;1.10;;
75356;SDS011;63946;51.986;5.930;2023-12-22T13:23:06;4.38;;;1.10;;
75356;SDS011;63946;51.986;5.930;2023-12-22T13:25:38;6.30;;;1.30;;
75356;SDS011;63946;51.986;5.930;2023-12-22T13:28:08;7.47;;;1.38;;
75356;SDS011;63946;51.986;5.930;2023-12-22T13:30:37;6.72;;;1.40;;
75356;SDS011;63946;51.986;5.930;2023-12-22T13:33:10;7.20;;;1.40;;
75356;SDS011;63946;51.986;5.930;2023-12-22T13:35:38;6.88;;;1.58;;
75356;SDS011;63946;51.986;5.930;2023-12-22T13:38:08;6.30;;;1.35;;
75356;SDS011;63946;51.986;5.930;2023-12-22T13:40:38;6.20;;;1.23;;
75356;SDS011;63946;51.986;5.930;2023-12-22T13:43:07;7.13;;;1.77;;
75356;SDS011;63946;51.986;5.930;2023-12-22T13:45:38;5.72;;;1.67;;
75356;SDS011;63946;51.986;5.930;2023-12-22T13:48:07;7.40;;;2.08;;
75356;SDS011;63946;51.986;5.930;2023-12-22T13:50:39;7.82;;;1.10;;
75356;SDS011;63946;51.986;5.930;2023-12-22T13:53:08;4.22;;;1.23;;
75356;SDS011;63946;51.986;5.930;2023-12-22T13:55:38;9.40;;;1.67;;
75356;SDS011;63946;51.986;5.930;2023-12-22T13:58:08;10.93;;;1.58;;
75356;SDS011;63946;51.986;5.930;2023-12-22T14:00:37;5.40;;;1.50;;
75356;SDS011;63946;51.986;5.930;2023-12-22T14:03:08;10.25;;;1.38;;
75356;SDS011;63946;51.986;5.930;2023-12-22T14:05:37;5.85;;;0.95;;
75356;SDS011;63946;51.986;5.930;2023-12-22T14:08:10;4.50;;;1.05;;
75356;SDS011;63946;51.986;5.930;2023-12-22T14:10:44;6.35;;;1.83;;
75356;SDS011;63946;51.986;5.930;2023-12-22T14:15:44;6.88;;;2.13;;
75356;SDS011;63946;51.986;5.930;2023-12-22T14:18:13;6.15;;;1.20;;
75356;SDS011;63946;51.986;5.930;2023-12-22T14:20:42;9.98;;;2.15;;
75356;SDS011;63946;51.986;5.930;2023-12-22T14:23:11;4.25;;;1.42;;
75356;SDS011;63946;51.986;5.930;2023-12-22T14:25:43;7.00;;;1.67;;
75356;SDS011;63946;51.986;5.930;2023-12-22T14:28:09;10.38;;;1.85;;
75356;SDS011;63946;51.986;5.930;2023-12-22T14:30:41;5.68;;;2.05;;
75356;SDS011;63946;51.986;5.930;2023-12-22T14:33:10;5.53;;;1.30;;
75356;SDS011;63946;51.986;5.930;2023-12-22T14:35:40;3.22;;;0.90;;
75356;SDS011;63946;51.986;5.930;2023-12-22T14:38:08;6.00;;;1.23;;
75356;SDS011;63946;51.986;5.930;2023-12-22T14:40:37;3.13;;;0.98;;
75356;SDS011;63946;51.986;5.930;2023-12-22T14:43:06;2.30;;;0.95;;
75356;SDS011;63946;51.986;5.930;2023-12-22T14:45:36;7.30;;;1.95;;
75356;SDS011;63946;51.986;5.930;2023-12-22T14:48:05;7.55;;;1.58;;
75356;SDS011;63946;51.986;5.930;2023-12-22T14:50:34;7.32;;;1.52;;
75356;SDS011;63946;51.986;5.930;2023-12-22T14:53:03;4.25;;;2.08;;
75356;SDS011;63946;51.986;5.930;2023-12-22T14:55:34;8.93;;;2.15;;
75356;SDS011;63946;51.986;5.930;2023-12-22T14:58:03;11.90;;;2.05;;
75356;SDS011;63946;51.986;5.930;2023-12-22T15:00:36;6.07;;;1.58;;
75356;SDS011;63946;51.986;5.930;2023-12-22T15:03:08;6.45;;;1.55;;
75356;SDS011;63946;51.986;5.930;2023-12-22T15:05:37;10.88;;;1.80;;
75356;SDS011;63946;51.986;5.930;2023-12-22T15:08:05;8.80;;;2.08;;
75356;SDS011;63946;51.986;5.930;2023-12-22T15:10:35;10.25;;;1.85;;
75356;SDS011;63946;51.986;5.930;2023-12-22T15:13:03;9.40;;;2.25;;
75356;SDS011;63946;51.986;5.930;2023-12-22T15:15:32;10.75;;;2.10;;
75356;SDS011;63946;51.986;5.930;2023-12-22T15:18:01;8.18;;;1.70;;
75356;SDS011;63946;51.986;5.930;2023-12-22T15:20:31;7.13;;;1.88;;
75356;SDS011;63946;51.986;5.930;2023-12-22T15:23:00;7.15;;;1.77;;
75356;SDS011;63946;51.986;5.930;2023-12-22T15:25:29;10.68;;;1.55;;
75356;SDS011;63946;51.986;5.930;2023-12-22T15:27:58;8.02;;;1.40;;
75356;SDS011;63946;51.986;5.930;2023-12-22T15:30:27;7.72;;;2.30;;
75356;SDS011;63946;51.986;5.930;2023-12-22T15:32:58;8.02;;;1.55;;